sensor_id;sensor_type;location;lat;lon;timestamp;P1;durP1;ratioP1;P2;durP2;ratioP2
62933;SDS011;49038;47.600;19.242;2022-10-15T00:02:06;32.72;;;12.65;;
62933;SDS011;49038;47.600;19.242;2022-10-15T00:05:08;20.98;;;10.68;;
62933;SDS011;49038;47.600;19.242;2022-10-15T00:08:11;24.30;;;10.82;;
62933;SDS011;49038;47.600;19.242;2022-10-15T00:11:21;31.15;;;11.07;;
62933;SDS011;49038;47.600;19.242;2022-10-15T00:14:24;17.65;;;8.73;;
62933;SDS011;49038;47.600;19.242;2022-10-15T00:17:27;23.12;;;8.95;;
62933;SDS011;49038;47.600;19.242;2022-10-15T00:20:29;29.65;;;11.88;;
62933;SDS011;49038;47.600;19.242;2022-10-15T00:23:32;43.10;;;14.10;;
62933;SDS011;49038;47.600;19.242;2022-10-15T00:26:34;21.70;;;10.43;;
62933;SDS011;49038;47.600;19.242;2022-10-15T00:29:36;21.65;;;9.32;;
62933;SDS011;49038;47.600;19.242;2022-10-15T00:32:39;16.77;;;8.55;;
62933;SDS011;49038;47.600;19.242;2022-10-15T00:35:41;17.75;;;8.85;;
62933;SDS011;49038;47.600;19.242;2022-10-15T00:38:43;18.42;;;7.90;;
62933;SDS011;49038;47.600;19.242;2022-10-15T00:41:45;18.23;;;8.55;;
62933;SDS011;49038;47.600;19.242;2022-10-15T00:44:52;15.88;;;8.38;;
62933;SDS011;49038;47.600;19.242;2022-10-15T00:47:58;15.35;;;8.25;;
62933;SDS011;49038;47.600;19.242;2022-10-15T00:51:00;15.60;;;8.10;;
62933;SDS011;49038;47.600;19.242;2022-10-15T00:54:05;12.88;;;7.80;;
62933;SDS011;49038;47.600;19.242;2022-10-15T00:57:07;11.88;;;7.10;;
62933;SDS011;49038;47.600;19.242;2022-10-15T01:00:11;13.85;;;7.10;;
62933;SDS011;49038;47.600;19.242;2022-10-15T01:03:16;14.93;;;6.87;;
62933;SDS011;49038;47.600;19.242;2022-10-15T01:06:18;19.65;;;8.52;;
62933;SDS011;49038;47.600;19.242;2022-10-15T01:09:20;25.20;;;9.35;;
62933;SDS011;49038;47.600;19.242;2022-10-15T01:12:26;22.10;;;10.13;;
62933;SDS011;49038;47.600;19.242;2022-10-15T01:15:40;25.12;;;10.65;;
62933;SDS011;49038;47.600;19.242;2022-10-15T01:18:52;20.85;;;8.43;;
62933;SDS011;49038;47.600;19.242;2022-10-15T01:22:03;19.10;;;9.38;;
62933;SDS011;49038;47.600;19.242;2022-10-15T01:37:59;14.27;;;7.50;;
62933;SDS011;49038;47.600;19.242;2022-10-15T01:41:09;14.60;;;6.87;;
62933;SDS011;49038;47.600;19.242;2022-10-15T01:44:16;14.87;;;6.87;;
62933;SDS011;49038;47.600;19.242;2022-10-15T01:47:43;14.25;;;7.70;;
62933;SDS011;49038;47.600;19.242;2022-10-15T01:50:46;18.00;;;7.28;;
62933;SDS011;49038;47.600;19.242;2022-10-15T01:53:50;13.75;;;7.53;;
62933;SDS011;49038;47.600;19.242;2022-10-15T01:56:53;12.37;;;6.82;;
62933;SDS011;49038;47.600;19.242;2022-10-15T01:59:56;21.95;;;10.85;;
62933;SDS011;49038;47.600;19.242;2022-10-15T02:03:01;24.95;;;12.23;;
62933;SDS011;49038;47.600;19.242;2022-10-15T02:06:06;23.70;;;10.48;;
62933;SDS011;49038;47.600;19.242;2022-10-15T02:22:25;19.55;;;8.30;;
62933;SDS011;49038;47.600;19.242;2022-10-15T02:25:31;13.43;;;7.22;;
62933;SDS011;49038;47.600;19.242;2022-10-15T02:28:34;15.77;;;7.22;;
62933;SDS011;49038;47.600;19.242;2022-10-15T02:31:38;13.77;;;7.55;;
62933;SDS011;49038;47.600;19.242;2022-10-15T02:34:43;12.70;;;6.65;;
62933;SDS011;49038;47.600;19.242;2022-10-15T02:37:46;14.50;;;7.50;;
62933;SDS011;49038;47.600;19.242;2022-10-15T02:40:51;14.35;;;7.32;;
62933;SDS011;49038;47.600;19.242;2022-10-15T02:43:53;13.68;;;7.57;;
62933;SDS011;49038;47.600;19.242;2022-10-15T02:46:56;11.23;;;6.57;;
62933;SDS011;49038;47.600;19.242;2022-10-15T02:49:59;12.27;;;6.95;;
62933;SDS011;49038;47.600;19.242;2022-10-15T02:53:02;11.05;;;6.12;;
62933;SDS011;49038;47.600;19.242;2022-10-15T02:56:04;12.30;;;7.62;;
62933;SDS011;49038;47.600;19.242;2022-10-15T02:59:06;15.10;;;7.15;;
62933;SDS011;49038;47.600;19.242;2022-10-15T03:02:08;17.80;;;7.90;;
62933;SDS011;49038;47.600;19.242;2022-10-15T03:05:17;12.90;;;7.32;;
62933;SDS011;49038;47.600;19.242;2022-10-15T03:08:19;15.00;;;6.70;;
62933;SDS011;49038;47.600;19.242;2022-10-15T03:11:22;17.98;;;7.87;;
62933;SDS011;49038;47.600;19.242;2022-10-15T03:14:24;18.20;;;7.50;;
62933;SDS011;49038;47.600;19.242;2022-10-15T03:17:26;18.62;;;7.65;;
62933;SDS011;49038;47.600;19.242;2022-10-15T03:20:28;14.32;;;7.68;;
62933;SDS011;49038;47.600;19.242;2022-10-15T03:23:31;14.10;;;7.93;;
62933;SDS011;49038;47.600;19.242;2022-10-15T03:26:34;11.55;;;7.35;;
62933;SDS011;49038;47.600;19.242;2022-10-15T03:29:36;13.62;;;6.65;;
62933;SDS011;49038;47.600;19.242;2022-10-15T03:32:38;14.23;;;6.82;;
62933;SDS011;49038;47.600;19.242;2022-10-15T03:35:40;13.02;;;7.35;;
62933;SDS011;49038;47.600;19.242;2022-10-15T03:38:43;16.48;;;7.28;;
62933;SDS011;49038;47.600;19.242;2022-10-15T03:41:45;13.27;;;6.78;;
62933;SDS011;49038;47.600;19.242;2022-10-15T03:44:47;15.05;;;7.55;;
62933;SDS011;49038;47.600;19.242;2022-10-15T03:47:49;14.32;;;7.62;;
62933;SDS011;49038;47.600;19.242;2022-10-15T03:50:52;15.15;;;7.85;;
62933;SDS011;49038;47.600;19.242;2022-10-15T03:53:54;13.82;;;6.95;;
62933;SDS011;49038;47.600;19.242;2022-10-15T03:56:56;12.45;;;7.12;;
62933;SDS011;49038;47.600;19.242;2022-10-15T03:59:58;12.45;;;7.15;;
62933;SDS011;49038;47.600;19.242;2022-10-15T04:03:00;16.00;;;7.60;;
62933;SDS011;49038;47.600;19.242;2022-10-15T04:06:03;14.98;;;6.75;;
62933;SDS011;49038;47.600;19.242;2022-10-15T04:09:05;19.35;;;7.68;;
62933;SDS011;49038;47.600;19.242;2022-10-15T04:12:07;11.90;;;6.47;;
62933;SDS011;49038;47.600;19.242;2022-10-15T04:15:10;13.45;;;7.37;;
62933;SDS011;49038;47.600;19.242;2022-10-15T04:18:12;14.35;;;7.62;;
62933;SDS011;49038;47.600;19.242;2022-10-15T04:21:14;14.05;;;6.80;;
62933;SDS011;49038;47.600;19.242;2022-10-15T04:24:16;26.17;;;7.55;;
62933;SDS011;49038;47.600;19.242;2022-10-15T04:27:19;15.82;;;7.25;;
62933;SDS011;49038;47.600;19.242;2022-10-15T04:30:21;13.93;;;6.75;;
62933;SDS011;49038;47.600;19.242;2022-10-15T04:33:23;9.25;;;6.22;;
62933;SDS011;49038;47.600;19.242;2022-10-15T04:36:26;16.40;;;7.22;;
62933;SDS011;49038;47.600;19.242;2022-10-15T04:39:28;12.63;;;6.62;;
62933;SDS011;49038;47.600;19.242;2022-10-15T04:42:30;13.57;;;6.90;;
62933;SDS011;49038;47.600;19.242;2022-10-15T04:45:32;18.45;;;7.25;;
62933;SDS011;49038;47.600;19.242;2022-10-15T04:48:35;16.67;;;8.00;;
62933;SDS011;49038;47.600;19.242;2022-10-15T04:51:43;14.00;;;7.30;;
62933;SDS011;49038;47.600;19.242;2022-10-15T04:54:46;13.82;;;7.00;;
62933;SDS011;49038;47.600;19.242;2022-10-15T04:57:48;12.45;;;6.70;;
62933;SDS011;49038;47.600;19.242;2022-10-15T05:00:50;10.85;;;6.20;;
62933;SDS011;49038;47.600;19.242;2022-10-15T05:03:52;16.12;;;7.10;;
62933;SDS011;49038;47.600;19.242;2022-10-15T05:06:54;13.95;;;6.45;;
62933;SDS011;49038;47.600;19.242;2022-10-15T05:09:57;14.10;;;6.62;;
62933;SDS011;49038;47.600;19.242;2022-10-15T05:12:59;12.75;;;6.15;;
62933;SDS011;49038;47.600;19.242;2022-10-15T05:16:08;13.60;;;6.55;;
62933;SDS011;49038;47.600;19.242;2022-10-15T05:19:16;10.43;;;6.05;;
62933;SDS011;49038;47.600;19.242;2022-10-15T05:22:18;19.77;;;7.78;;
62933;SDS011;49038;47.600;19.242;2022-10-15T05:25:21;22.42;;;7.75;;
62933;SDS011;49038;47.600;19.242;2022-10-15T05:28:23;12.60;;;6.78;;
62933;SDS011;49038;47.600;19.242;2022-10-15T05:31:27;18.20;;;6.62;;
62933;SDS011;49038;47.600;19.242;2022-10-15T05:34:30;11.35;;;6.47;;
62933;SDS011;49038;47.600;19.242;2022-10-15T05:37:32;17.90;;;6.45;;
62933;SDS011;49038;47.600;19.242;2022-10-15T05:40:34;11.70;;;6.50;;
62933;SDS011;49038;47.600;19.242;2022-10-15T05:43:37;13.73;;;7.12;;
62933;SDS011;49038;47.600;19.242;2022-10-15T05:46:42;10.68;;;5.37;;
62933;SDS011;49038;47.600;19.242;2022-10-15T05:49:44;10.00;;;6.40;;
62933;SDS011;49038;47.600;19.242;2022-10-15T05:52:46;10.85;;;6.30;;
62933;SDS011;49038;47.600;19.242;2022-10-15T05:55:51;19.77;;;7.12;;
62933;SDS011;49038;47.600;19.242;2022-10-15T05:58:54;14.32;;;7.70;;
62933;SDS011;49038;47.600;19.242;2022-10-15T06:01:56;14.82;;;5.95;;
62933;SDS011;49038;47.600;19.242;2022-10-15T06:04:58;12.00;;;6.60;;
62933;SDS011;49038;47.600;19.242;2022-10-15T06:08:01;12.23;;;6.68;;
62933;SDS011;49038;47.600;19.242;2022-10-15T06:11:03;12.88;;;5.95;;
62933;SDS011;49038;47.600;19.242;2022-10-15T06:14:10;13.75;;;7.00;;
62933;SDS011;49038;47.600;19.242;2022-10-15T06:17:12;15.27;;;7.05;;
62933;SDS011;49038;47.600;19.242;2022-10-15T06:20:14;12.32;;;6.82;;
62933;SDS011;49038;47.600;19.242;2022-10-15T06:23:16;12.93;;;6.97;;
62933;SDS011;49038;47.600;19.242;2022-10-15T06:26:19;11.20;;;5.95;;
62933;SDS011;49038;47.600;19.242;2022-10-15T06:29:21;9.70;;;6.28;;
62933;SDS011;49038;47.600;19.242;2022-10-15T06:32:23;13.23;;;6.12;;
62933;SDS011;49038;47.600;19.242;2022-10-15T06:35:25;15.88;;;6.15;;
62933;SDS011;49038;47.600;19.242;2022-10-15T06:38:31;9.32;;;6.03;;
62933;SDS011;49038;47.600;19.242;2022-10-15T06:41:33;13.38;;;6.85;;
62933;SDS011;49038;47.600;19.242;2022-10-15T06:44:35;9.57;;;6.00;;
62933;SDS011;49038;47.600;19.242;2022-10-15T06:47:41;11.40;;;5.47;;
62933;SDS011;49038;47.600;19.242;2022-10-15T06:50:43;16.35;;;7.30;;
62933;SDS011;49038;47.600;19.242;2022-10-15T06:53:45;13.55;;;7.28;;
62933;SDS011;49038;47.600;19.242;2022-10-15T06:56:47;12.02;;;6.40;;
62933;SDS011;49038;47.600;19.242;2022-10-15T06:59:50;13.38;;;6.55;;
62933;SDS011;49038;47.600;19.242;2022-10-15T07:02:52;11.98;;;6.90;;
62933;SDS011;49038;47.600;19.242;2022-10-15T07:05:55;11.55;;;6.40;;
62933;SDS011;49038;47.600;19.242;2022-10-15T07:08:57;10.50;;;6.65;;
62933;SDS011;49038;47.600;19.242;2022-10-15T07:12:02;10.38;;;6.32;;
62933;SDS011;49038;47.600;19.242;2022-10-15T07:15:05;8.95;;;5.95;;
62933;SDS011;49038;47.600;19.242;2022-10-15T07:18:08;12.18;;;6.28;;
62933;SDS011;49038;47.600;19.242;2022-10-15T07:21:10;13.70;;;6.53;;
62933;SDS011;49038;47.600;19.242;2022-10-15T07:24:12;9.90;;;6.40;;
62933;SDS011;49038;47.600;19.242;2022-10-15T07:27:14;8.30;;;5.20;;
62933;SDS011;49038;47.600;19.242;2022-10-15T07:30:20;8.82;;;5.90;;
62933;SDS011;49038;47.600;19.242;2022-10-15T07:33:23;10.38;;;6.00;;
62933;SDS011;49038;47.600;19.242;2022-10-15T07:36:26;13.57;;;5.97;;
62933;SDS011;49038;47.600;19.242;2022-10-15T07:39:28;12.37;;;5.95;;
62933;SDS011;49038;47.600;19.242;2022-10-15T07:42:30;10.05;;;6.68;;
62933;SDS011;49038;47.600;19.242;2022-10-15T07:45:32;13.52;;;5.87;;
62933;SDS011;49038;47.600;19.242;2022-10-15T07:48:34;10.63;;;6.03;;
62933;SDS011;49038;47.600;19.242;2022-10-15T07:51:37;10.15;;;5.37;;
62933;SDS011;49038;47.600;19.242;2022-10-15T07:54:39;8.68;;;5.30;;
62933;SDS011;49038;47.600;19.242;2022-10-15T07:57:41;10.70;;;5.85;;
62933;SDS011;49038;47.600;19.242;2022-10-15T08:00:43;10.25;;;6.47;;
62933;SDS011;49038;47.600;19.242;2022-10-15T08:03:46;10.45;;;6.20;;
62933;SDS011;49038;47.600;19.242;2022-10-15T08:06:48;9.23;;;5.70;;
62933;SDS011;49038;47.600;19.242;2022-10-15T08:09:51;9.55;;;5.65;;
62933;SDS011;49038;47.600;19.242;2022-10-15T08:12:53;10.52;;;5.18;;
62933;SDS011;49038;47.600;19.242;2022-10-15T08:15:56;8.00;;;4.90;;
62933;SDS011;49038;47.600;19.242;2022-10-15T08:19:01;8.18;;;5.45;;
62933;SDS011;49038;47.600;19.242;2022-10-15T08:22:03;8.80;;;4.97;;
62933;SDS011;49038;47.600;19.242;2022-10-15T08:25:06;9.60;;;5.45;;
62933;SDS011;49038;47.600;19.242;2022-10-15T08:28:09;9.57;;;5.05;;
62933;SDS011;49038;47.600;19.242;2022-10-15T08:31:11;10.38;;;5.37;;
62933;SDS011;49038;47.600;19.242;2022-10-15T08:34:14;13.62;;;5.40;;
62933;SDS011;49038;47.600;19.242;2022-10-15T08:37:16;8.10;;;5.10;;
62933;SDS011;49038;47.600;19.242;2022-10-15T08:40:19;13.25;;;4.93;;
62933;SDS011;49038;47.600;19.242;2022-10-15T08:46:36;7.32;;;4.85;;
62933;SDS011;49038;47.600;19.242;2022-10-15T08:49:50;13.35;;;5.20;;
62933;SDS011;49038;47.600;19.242;2022-10-15T08:52:54;7.95;;;5.35;;
62933;SDS011;49038;47.600;19.242;2022-10-15T08:55:59;6.90;;;4.43;;
62933;SDS011;49038;47.600;19.242;2022-10-15T09:02:42;10.63;;;5.15;;
62933;SDS011;49038;47.600;19.242;2022-10-15T09:09:47;8.60;;;4.15;;
62933;SDS011;49038;47.600;19.242;2022-10-15T09:13:14;8.10;;;5.18;;
62933;SDS011;49038;47.600;19.242;2022-10-15T09:16:19;5.43;;;3.75;;
62933;SDS011;49038;47.600;19.242;2022-10-15T09:19:23;8.32;;;5.10;;
62933;SDS011;49038;47.600;19.242;2022-10-15T09:22:29;7.80;;;4.70;;
62933;SDS011;49038;47.600;19.242;2022-10-15T09:25:34;7.55;;;4.40;;
62933;SDS011;49038;47.600;19.242;2022-10-15T09:28:39;12.13;;;4.95;;
62933;SDS011;49038;47.600;19.242;2022-10-15T09:35:25;7.32;;;4.72;;
62933;SDS011;49038;47.600;19.242;2022-10-15T09:44:47;6.45;;;4.18;;
62933;SDS011;49038;47.600;19.242;2022-10-15T09:47:50;7.15;;;4.30;;
62933;SDS011;49038;47.600;19.242;2022-10-15T09:51:02;6.62;;;4.60;;
62933;SDS011;49038;47.600;19.242;2022-10-15T09:58:14;7.35;;;3.60;;
62933;SDS011;49038;47.600;19.242;2022-10-15T10:01:20;5.28;;;3.78;;
62933;SDS011;49038;47.600;19.242;2022-10-15T10:04:25;5.57;;;3.90;;
62933;SDS011;49038;47.600;19.242;2022-10-15T10:07:35;7.35;;;4.30;;
62933;SDS011;49038;47.600;19.242;2022-10-15T10:10:38;6.32;;;3.83;;
62933;SDS011;49038;47.600;19.242;2022-10-15T10:17:03;4.78;;;3.05;;
62933;SDS011;49038;47.600;19.242;2022-10-15T10:23:20;5.53;;;3.30;;
62933;SDS011;49038;47.600;19.242;2022-10-15T10:26:23;5.40;;;3.55;;
62933;SDS011;49038;47.600;19.242;2022-10-15T10:29:26;7.15;;;3.28;;
62933;SDS011;49038;47.600;19.242;2022-10-15T10:35:44;5.35;;;3.03;;
62933;SDS011;49038;47.600;19.242;2022-10-15T10:38:55;4.80;;;3.12;;
62933;SDS011;49038;47.600;19.242;2022-10-15T10:45:21;5.82;;;3.62;;
62933;SDS011;49038;47.600;19.242;2022-10-15T10:48:25;4.00;;;2.97;;
62933;SDS011;49038;47.600;19.242;2022-10-15T10:51:30;5.75;;;3.75;;
62933;SDS011;49038;47.600;19.242;2022-10-15T10:54:32;4.40;;;2.95;;
62933;SDS011;49038;47.600;19.242;2022-10-15T11:00:53;3.72;;;2.80;;
62933;SDS011;49038;47.600;19.242;2022-10-15T11:03:56;5.62;;;3.22;;
62933;SDS011;49038;47.600;19.242;2022-10-15T11:10:25;4.85;;;2.70;;
62933;SDS011;49038;47.600;19.242;2022-10-15T11:16:43;3.87;;;2.67;;
62933;SDS011;49038;47.600;19.242;2022-10-15T11:26:55;3.00;;;2.30;;
62933;SDS011;49038;47.600;19.242;2022-10-15T11:50:36;2.70;;;2.33;;
62933;SDS011;49038;47.600;19.242;2022-10-15T11:57:30;4.95;;;2.35;;
62933;SDS011;49038;47.600;19.242;2022-10-15T12:00:34;3.17;;;2.22;;
62933;SDS011;49038;47.600;19.242;2022-10-15T12:03:48;3.67;;;2.00;;
62933;SDS011;49038;47.600;19.242;2022-10-15T12:07:05;4.78;;;3.00;;
62933;SDS011;49038;47.600;19.242;2022-10-15T12:19:59;2.72;;;2.22;;
62933;SDS011;49038;47.600;19.242;2022-10-15T12:23:21;6.50;;;2.62;;
62933;SDS011;49038;47.600;19.242;2022-10-15T12:26:26;3.83;;;2.95;;
62933;SDS011;49038;47.600;19.242;2022-10-15T12:29:29;4.22;;;2.50;;
62933;SDS011;49038;47.600;19.242;2022-10-15T12:32:44;3.37;;;2.33;;
62933;SDS011;49038;47.600;19.242;2022-10-15T12:35:52;9.77;;;5.18;;
62933;SDS011;49038;47.600;19.242;2022-10-15T12:42:25;3.45;;;2.67;;
62933;SDS011;49038;47.600;19.242;2022-10-15T12:45:35;3.67;;;2.45;;
62933;SDS011;49038;47.600;19.242;2022-10-15T12:48:42;5.05;;;2.50;;
62933;SDS011;49038;47.600;19.242;2022-10-15T12:51:45;4.55;;;2.60;;
62933;SDS011;49038;47.600;19.242;2022-10-15T12:54:49;4.15;;;2.50;;
62933;SDS011;49038;47.600;19.242;2022-10-15T12:57:53;4.12;;;2.78;;
62933;SDS011;49038;47.600;19.242;2022-10-15T13:00:56;4.37;;;2.58;;
62933;SDS011;49038;47.600;19.242;2022-10-15T13:03:59;4.05;;;2.40;;
62933;SDS011;49038;47.600;19.242;2022-10-15T13:07:02;3.70;;;2.22;;
62933;SDS011;49038;47.600;19.242;2022-10-15T13:10:05;8.27;;;4.97;;
62933;SDS011;49038;47.600;19.242;2022-10-15T13:13:21;5.03;;;3.12;;
62933;SDS011;49038;47.600;19.242;2022-10-15T13:16:26;3.12;;;2.70;;
62933;SDS011;49038;47.600;19.242;2022-10-15T13:19:37;5.18;;;2.55;;
62933;SDS011;49038;47.600;19.242;2022-10-15T13:22:41;3.28;;;2.08;;
62933;SDS011;49038;47.600;19.242;2022-10-15T13:25:43;9.13;;;2.92;;
62933;SDS011;49038;47.600;19.242;2022-10-15T13:28:47;3.90;;;2.70;;
62933;SDS011;49038;47.600;19.242;2022-10-15T13:31:51;7.53;;;2.50;;
62933;SDS011;49038;47.600;19.242;2022-10-15T13:34:55;3.67;;;2.40;;
62933;SDS011;49038;47.600;19.242;2022-10-15T13:37:58;4.10;;;2.47;;
62933;SDS011;49038;47.600;19.242;2022-10-15T13:41:01;4.30;;;2.50;;
62933;SDS011;49038;47.600;19.242;2022-10-15T13:44:03;5.15;;;2.95;;
62933;SDS011;49038;47.600;19.242;2022-10-15T13:50:41;4.03;;;2.60;;
62933;SDS011;49038;47.600;19.242;2022-10-15T13:53:44;3.47;;;2.28;;
62933;SDS011;49038;47.600;19.242;2022-10-15T13:56:55;7.00;;;2.80;;
62933;SDS011;49038;47.600;19.242;2022-10-15T13:59:59;4.37;;;2.83;;
62933;SDS011;49038;47.600;19.242;2022-10-15T14:06:27;4.47;;;2.90;;
62933;SDS011;49038;47.600;19.242;2022-10-15T14:12:33;7.90;;;4.05;;
62933;SDS011;49038;47.600;19.242;2022-10-15T14:15:39;4.80;;;2.60;;
62933;SDS011;49038;47.600;19.242;2022-10-15T14:18:43;6.20;;;2.33;;
62933;SDS011;49038;47.600;19.242;2022-10-15T14:21:50;6.80;;;3.40;;
62933;SDS011;49038;47.600;19.242;2022-10-15T14:24:53;6.25;;;4.00;;
62933;SDS011;49038;47.600;19.242;2022-10-15T14:27:56;8.63;;;3.53;;
62933;SDS011;49038;47.600;19.242;2022-10-15T14:30:59;5.20;;;3.30;;
62933;SDS011;49038;47.600;19.242;2022-10-15T14:34:02;4.45;;;3.58;;
62933;SDS011;49038;47.600;19.242;2022-10-15T14:40:55;4.62;;;2.85;;
62933;SDS011;49038;47.600;19.242;2022-10-15T14:44:20;5.22;;;3.30;;
62933;SDS011;49038;47.600;19.242;2022-10-15T14:47:29;6.65;;;4.20;;
62933;SDS011;49038;47.600;19.242;2022-10-15T14:50:34;6.80;;;3.42;;
62933;SDS011;49038;47.600;19.242;2022-10-15T14:53:37;6.95;;;2.95;;
62933;SDS011;49038;47.600;19.242;2022-10-15T14:56:45;7.32;;;4.40;;
62933;SDS011;49038;47.600;19.242;2022-10-15T14:59:48;5.00;;;2.58;;
62933;SDS011;49038;47.600;19.242;2022-10-15T15:02:54;7.45;;;3.58;;
62933;SDS011;49038;47.600;19.242;2022-10-15T15:05:57;5.55;;;2.90;;
62933;SDS011;49038;47.600;19.242;2022-10-15T15:08:59;6.00;;;4.07;;
62933;SDS011;49038;47.600;19.242;2022-10-15T15:12:02;13.38;;;5.57;;
62933;SDS011;49038;47.600;19.242;2022-10-15T15:15:11;4.70;;;3.28;;
62933;SDS011;49038;47.600;19.242;2022-10-15T15:18:16;9.57;;;4.27;;
62933;SDS011;49038;47.600;19.242;2022-10-15T15:21:21;7.20;;;4.20;;
62933;SDS011;49038;47.600;19.242;2022-10-15T15:24:24;6.25;;;3.05;;
62933;SDS011;49038;47.600;19.242;2022-10-15T15:27:27;11.52;;;4.68;;
62933;SDS011;49038;47.600;19.242;2022-10-15T15:30:31;6.60;;;4.72;;
62933;SDS011;49038;47.600;19.242;2022-10-15T15:33:35;5.43;;;3.83;;
62933;SDS011;49038;47.600;19.242;2022-10-15T15:36:37;6.82;;;4.15;;
62933;SDS011;49038;47.600;19.242;2022-10-15T15:39:39;6.12;;;4.30;;
62933;SDS011;49038;47.600;19.242;2022-10-15T15:42:42;9.73;;;4.00;;
62933;SDS011;49038;47.600;19.242;2022-10-15T15:45:45;6.15;;;3.70;;
62933;SDS011;49038;47.600;19.242;2022-10-15T15:48:47;8.40;;;3.70;;
62933;SDS011;49038;47.600;19.242;2022-10-15T15:51:49;6.20;;;3.83;;
62933;SDS011;49038;47.600;19.242;2022-10-15T15:54:52;6.72;;;3.33;;
62933;SDS011;49038;47.600;19.242;2022-10-15T15:57:54;9.85;;;3.87;;
62933;SDS011;49038;47.600;19.242;2022-10-15T16:00:56;5.32;;;3.87;;
62933;SDS011;49038;47.600;19.242;2022-10-15T16:03:58;5.45;;;3.60;;
62933;SDS011;49038;47.600;19.242;2022-10-15T16:07:00;5.65;;;2.97;;
62933;SDS011;49038;47.600;19.242;2022-10-15T16:10:03;6.15;;;3.35;;
62933;SDS011;49038;47.600;19.242;2022-10-15T16:13:07;8.00;;;3.60;;
62933;SDS011;49038;47.600;19.242;2022-10-15T16:16:09;5.07;;;3.05;;
62933;SDS011;49038;47.600;19.242;2022-10-15T16:19:11;6.07;;;2.60;;
62933;SDS011;49038;47.600;19.242;2022-10-15T16:22:14;4.53;;;2.72;;
62933;SDS011;49038;47.600;19.242;2022-10-15T16:25:17;6.80;;;2.65;;
62933;SDS011;49038;47.600;19.242;2022-10-15T16:28:19;4.07;;;2.80;;
62933;SDS011;49038;47.600;19.242;2022-10-15T16:31:23;4.07;;;2.83;;
62933;SDS011;49038;47.600;19.242;2022-10-15T16:34:31;4.03;;;3.40;;
62933;SDS011;49038;47.600;19.242;2022-10-15T16:37:33;4.85;;;2.90;;
62933;SDS011;49038;47.600;19.242;2022-10-15T16:40:36;5.53;;;3.20;;
62933;SDS011;49038;47.600;19.242;2022-10-15T16:43:39;17.05;;;9.52;;
62933;SDS011;49038;47.600;19.242;2022-10-15T16:46:41;15.80;;;8.32;;
62933;SDS011;49038;47.600;19.242;2022-10-15T16:49:44;11.35;;;6.85;;
62933;SDS011;49038;47.600;19.242;2022-10-15T16:52:46;6.20;;;3.70;;
62933;SDS011;49038;47.600;19.242;2022-10-15T16:55:48;6.85;;;4.00;;
62933;SDS011;49038;47.600;19.242;2022-10-15T16:58:50;8.63;;;4.55;;
62933;SDS011;49038;47.600;19.242;2022-10-15T17:01:53;9.43;;;3.50;;
62933;SDS011;49038;47.600;19.242;2022-10-15T17:04:55;8.73;;;3.90;;
62933;SDS011;49038;47.600;19.242;2022-10-15T17:07:57;6.55;;;3.67;;
62933;SDS011;49038;47.600;19.242;2022-10-15T17:11:00;7.53;;;3.90;;
62933;SDS011;49038;47.600;19.242;2022-10-15T17:14:03;5.97;;;3.78;;
62933;SDS011;49038;47.600;19.242;2022-10-15T17:17:09;6.07;;;3.87;;
62933;SDS011;49038;47.600;19.242;2022-10-15T17:20:11;8.68;;;4.10;;
62933;SDS011;49038;47.600;19.242;2022-10-15T17:23:14;8.23;;;3.97;;
62933;SDS011;49038;47.600;19.242;2022-10-15T17:26:18;10.93;;;4.68;;
62933;SDS011;49038;47.600;19.242;2022-10-15T17:29:25;9.77;;;4.35;;
62933;SDS011;49038;47.600;19.242;2022-10-15T17:32:34;10.02;;;3.80;;
62933;SDS011;49038;47.600;19.242;2022-10-15T17:35:36;8.88;;;4.80;;
62933;SDS011;49038;47.600;19.242;2022-10-15T17:38:38;6.05;;;3.83;;
62933;SDS011;49038;47.600;19.242;2022-10-15T17:41:40;9.27;;;4.47;;
62933;SDS011;49038;47.600;19.242;2022-10-15T17:44:43;9.13;;;4.30;;
62933;SDS011;49038;47.600;19.242;2022-10-15T17:47:45;6.00;;;3.55;;
62933;SDS011;49038;47.600;19.242;2022-10-15T17:50:47;9.75;;;4.10;;
62933;SDS011;49038;47.600;19.242;2022-10-15T17:53:50;10.15;;;3.95;;
62933;SDS011;49038;47.600;19.242;2022-10-15T17:56:52;8.77;;;4.05;;
62933;SDS011;49038;47.600;19.242;2022-10-15T17:59:55;9.35;;;4.37;;
62933;SDS011;49038;47.600;19.242;2022-10-15T18:02:57;9.70;;;4.75;;
62933;SDS011;49038;47.600;19.242;2022-10-15T18:06:04;6.78;;;4.18;;
62933;SDS011;49038;47.600;19.242;2022-10-15T18:09:08;6.60;;;3.97;;
62933;SDS011;49038;47.600;19.242;2022-10-15T18:12:10;7.97;;;4.50;;
62933;SDS011;49038;47.600;19.242;2022-10-15T18:15:13;5.53;;;3.60;;
62933;SDS011;49038;47.600;19.242;2022-10-15T18:18:15;4.97;;;3.47;;
62933;SDS011;49038;47.600;19.242;2022-10-15T18:21:19;6.60;;;3.90;;
62933;SDS011;49038;47.600;19.242;2022-10-15T18:24:22;7.45;;;3.55;;
62933;SDS011;49038;47.600;19.242;2022-10-15T18:27:25;6.05;;;3.70;;
62933;SDS011;49038;47.600;19.242;2022-10-15T18:30:27;4.75;;;3.08;;
62933;SDS011;49038;47.600;19.242;2022-10-15T18:33:30;6.07;;;3.95;;
62933;SDS011;49038;47.600;19.242;2022-10-15T18:36:32;6.78;;;4.00;;
62933;SDS011;49038;47.600;19.242;2022-10-15T18:39:34;8.20;;;3.55;;
62933;SDS011;49038;47.600;19.242;2022-10-15T18:42:37;4.93;;;3.15;;
62933;SDS011;49038;47.600;19.242;2022-10-15T18:45:39;7.65;;;3.33;;
62933;SDS011;49038;47.600;19.242;2022-10-15T18:48:41;7.40;;;3.60;;
62933;SDS011;49038;47.600;19.242;2022-10-15T18:51:44;4.40;;;3.42;;
62933;SDS011;49038;47.600;19.242;2022-10-15T18:54:47;7.37;;;3.47;;
62933;SDS011;49038;47.600;19.242;2022-10-15T18:57:49;6.30;;;3.60;;
62933;SDS011;49038;47.600;19.242;2022-10-15T19:00:51;4.70;;;3.55;;
62933;SDS011;49038;47.600;19.242;2022-10-15T19:03:54;5.28;;;3.67;;
62933;SDS011;49038;47.600;19.242;2022-10-15T19:06:57;5.07;;;3.35;;
62933;SDS011;49038;47.600;19.242;2022-10-15T19:10:03;6.82;;;3.75;;
62933;SDS011;49038;47.600;19.242;2022-10-15T19:13:05;5.90;;;4.10;;
62933;SDS011;49038;47.600;19.242;2022-10-15T19:16:07;5.93;;;3.40;;
62933;SDS011;49038;47.600;19.242;2022-10-15T19:19:11;8.38;;;3.25;;
62933;SDS011;49038;47.600;19.242;2022-10-15T19:22:16;4.68;;;2.92;;
62933;SDS011;49038;47.600;19.242;2022-10-15T19:25:19;5.95;;;2.95;;
62933;SDS011;49038;47.600;19.242;2022-10-15T19:28:21;5.00;;;3.05;;
62933;SDS011;49038;47.600;19.242;2022-10-15T19:31:33;5.65;;;2.97;;
62933;SDS011;49038;47.600;19.242;2022-10-15T19:34:37;6.10;;;3.35;;
62933;SDS011;49038;47.600;19.242;2022-10-15T19:37:40;5.87;;;3.67;;
62933;SDS011;49038;47.600;19.242;2022-10-15T19:40:42;5.72;;;3.20;;
62933;SDS011;49038;47.600;19.242;2022-10-15T19:43:49;8.07;;;2.87;;
62933;SDS011;49038;47.600;19.242;2022-10-15T19:46:52;3.22;;;2.85;;
62933;SDS011;49038;47.600;19.242;2022-10-15T19:49:55;4.07;;;2.90;;
62933;SDS011;49038;47.600;19.242;2022-10-15T19:52:57;4.93;;;3.25;;
62933;SDS011;49038;47.600;19.242;2022-10-15T19:56:07;5.03;;;3.15;;
62933;SDS011;49038;47.600;19.242;2022-10-15T19:59:09;5.60;;;3.33;;
62933;SDS011;49038;47.600;19.242;2022-10-15T20:02:12;3.45;;;2.53;;
62933;SDS011;49038;47.600;19.242;2022-10-15T20:05:14;3.90;;;3.08;;
62933;SDS011;49038;47.600;19.242;2022-10-15T20:08:17;4.68;;;3.70;;
62933;SDS011;49038;47.600;19.242;2022-10-15T20:11:19;6.93;;;3.87;;
62933;SDS011;49038;47.600;19.242;2022-10-15T20:14:21;6.45;;;3.50;;
62933;SDS011;49038;47.600;19.242;2022-10-15T20:17:24;4.75;;;3.45;;